Time;durP1;ratioP1;P1;durP2;ratioP2;P2;SDS_P1;SDS_P2;PMS_P1;PMS_P2;Temp;Humidity;BMP_temperature;BMP_pressure;BME280_temperature;BME280_humidity;BME280_pressure;Samples;Min_cycle;Max_cycle;Signal;HPM_P1;HPM_P2
2023/02/22 00:00:21;;;;;;;10.30;3.57;;;;;;;6.71;55.57;99980.52;122796;1104;104261;-77
2023/02/22 00:03:15;;;;;;;7.13;3.20;;;;;;;6.71;55.89;99984.86;122930;1105;104258;-77
2023/02/22 00:05:47;;;;;;;9.43;3.20;;;;;;;6.70;55.50;99985.67;122966;1105;104341;-77
2023/02/22 00:08:20;;;;;;;10.27;3.17;;;;;;;6.71;55.66;99990.95;122863;1105;104254;-77
2023/02/22 00:10:51;;;;;;;7.57;2.80;;;;;;;6.72;55.47;99987.53;122839;1105;104251;-76
2023/02/22 00:13:22;;;;;;;6.80;2.93;;;;;;;6.74;55.17;99980.66;122835;1105;104357;-77
2023/02/22 00:15:54;;;;;;;7.80;3.23;;;;;;;6.75;55.31;99977.23;122892;1105;104389;-77
2023/02/22 00:18:27;;;;;;;5.83;2.63;;;;;;;6.77;54.79;99983.39;122951;1105;104316;-77
2023/02/22 00:21:00;;;;;;;5.83;2.62;;;;;;;6.76;54.94;99975.51;122918;1105;105809;-77
2023/02/22 00:23:32;;;;;;;6.13;2.60;;;;;;;6.76;55.00;99981.64;122879;1105;104387;-77
2023/02/22 00:26:03;;;;;;;;;;;;;;;6.74;54.91;99984.98;122856;1105;104369;-77
2023/02/22 00:28:35;;;;;;;9.15;3.00;;;;;;;6.73;54.89;99994.54;122820;1105;104293;-77
2023/02/22 00:31:08;;;;;;;5.67;2.73;;;;;;;6.71;54.76;99996.17;122944;1105;104431;-77
2023/02/22 00:33:40;;;;;;;10.67;3.23;;;;;;;6.72;55.07;99999.69;122902;1105;104341;-77
2023/02/22 00:36:13;;;;;;;10.27;3.07;;;;;;;6.70;54.64;100003.92;122898;1105;104320;-77
2023/02/22 00:38:45;;;;;;;8.50;3.10;;;;;;;6.70;54.91;100009.14;122909;1105;104336;-76
2023/02/22 00:41:16;;;;;;;6.80;2.80;;;;;;;6.68;54.76;100019.50;122838;1105;104293;-76
2023/02/22 00:43:48;;;;;;;7.73;2.73;;;;;;;6.67;54.74;100015.13;122865;1105;104323;-77
2023/02/22 00:46:19;;;;;;;6.70;2.50;;;;;;;6.64;54.85;100015.00;122897;1105;104275;-77
2023/02/22 00:48:51;;;;;;;7.43;3.07;;;;;;;6.61;54.84;100010.53;122932;1105;104242;-77
2023/02/22 00:51:25;;;;;;;9.57;3.00;;;;;;;6.58;54.91;100022.55;122769;1105;104335;-77
2023/02/22 00:53:56;;;;;;;8.35;3.00;;;;;;;6.53;54.83;100027.56;122891;1105;104300;-77
2023/02/22 00:56:27;;;;;;;11.30;2.90;;;;;;;6.50;54.56;100032.64;122810;1105;104357;-78
2023/02/22 00:58:59;;;;;;;12.93;3.00;;;;;;;6.47;54.78;100037.72;122793;1105;105600;-78
2023/02/22 01:01:31;;;;;;;4.83;2.57;;;;;;;6.44;54.84;100032.36;122993;1105;104362;-77
2023/02/22 01:04:03;;;;;;;9.23;3.00;;;;;;;6.43;54.96;100034.05;122828;1105;104379;-78
2023/02/22 01:06:36;;;;;;;5.63;2.80;;;;;;;6.40;54.90;100041.73;122885;1105;104319;-78
2023/02/22 01:09:07;;;;;;;7.73;3.10;;;;;;;6.37;55.22;100045.93;122924;1105;104347;-77
2023/02/22 01:11:40;;;;;;;9.20;3.07;;;;;;;6.36;55.19;100041.53;122913;1105;104247;-77
2023/02/22 01:14:11;;;;;;;11.73;3.13;;;;;;;6.34;55.31;100041.46;122835;1105;104333;-77
2023/02/22 01:16:43;;;;;;;12.43;3.17;;;;;;;6.34;55.28;100032.76;122802;1105;104332;-77
2023/02/22 01:19:14;;;;;;;9.90;2.83;;;;;;;6.33;55.13;100021.45;122829;1105;104376;-77
2023/02/22 01:21:47;;;;;;;6.13;2.90;;;;;;;6.32;55.04;100027.48;122806;1105;104299;-77
2023/02/22 01:24:18;;;;;;;9.35;3.10;;;;;;;6.33;55.30;100038.78;122868;1105;104294;-77
2023/02/22 01:26:53;;;;;;;8.90;2.95;;;;;;;6.31;55.19;100036.14;122835;1105;104403;-78
2023/02/22 01:29:24;;;;;;;8.00;2.70;;;;;;;6.29;55.46;100035.16;122845;1105;104278;-77
2023/02/22 01:31:56;;;;;;;8.90;2.77;;;;;;;6.25;55.41;100041.95;122862;1105;104255;-77
2023/02/22 01:34:29;;;;;;;10.13;2.83;;;;;;;6.25;55.37;100035.86;122812;1105;104282;-79
2023/02/22 01:37:01;;;;;;;8.10;2.80;;;;;;;6.22;55.47;100033.11;122843;1105;104319;-77
2023/02/22 01:39:32;;;;;;;11.40;3.00;;;;;;;6.19;55.34;100046.00;122796;1105;104379;-79
2023/02/22 01:42:03;;;;;;;7.60;3.20;;;;;;;6.16;55.56;100045.86;122788;1105;104403;-76
2023/02/22 01:44:37;;;;;;;6.10;2.80;;;;;;;6.11;55.29;100038.72;122805;1105;104290;-77
2023/02/22 01:47:09;;;;;;;7.10;2.90;;;;;;;6.09;55.72;100050.78;123007;1105;104294;-77
2023/02/22 01:49:45;;;;;;;7.93;3.27;;;;;;;6.07;55.41;100051.52;122909;1105;104293;-77
2023/02/22 01:52:21;;;;;;;9.07;3.07;;;;;;;6.03;55.64;100052.19;122959;1105;104491;-78
2023/02/22 01:54:56;;;;;;;8.77;3.03;;;;;;;6.00;55.48;100055.56;123013;1105;104264;-77
2023/02/22 01:57:32;;;;;;;8.97;3.13;;;;;;;5.96;55.86;100065.73;122902;1105;104373;-77
2023/02/22 02:00:13;;;;;;;9.13;2.67;;;;;;;5.92;55.75;100065.59;122853;1105;104268;-78
2023/02/22 02:02:50;;;;;;;14.00;3.47;;;;;;;5.89;55.55;100057.63;123035;1105;104270;-77
2023/02/22 02:05:23;;;;;;;10.05;3.10;;;;;;;5.85;55.68;100066.11;122918;1105;104345;-77
2023/02/22 02:07:55;;;;;;;8.93;2.70;;;;;;;5.83;55.60;100072.96;122825;1105;104376;-76
2023/02/22 02:10:26;;;;;;;9.53;3.00;;;;;;;5.81;55.78;100069.37;122919;1105;105867;-77
2023/02/22 02:12:59;;;;;;;10.70;3.10;;;;;;;5.81;55.51;100078.91;122858;1105;104398;-78
2023/02/22 02:15:32;;;;;;;9.27;3.10;;;;;;;5.80;55.80;100075.42;122796;1105;104322;-77
2023/02/22 02:18:07;;;;;;;9.95;2.98;;;;;;;5.79;55.54;100076.22;122792;1105;104389;-77
2023/02/22 02:20:51;;;;;;;14.90;3.30;;;;;;;5.79;56.03;100078.83;122779;1105;104281;-77
2023/02/22 02:23:51;;;;;;;9.80;3.20;;;;;;;5.77;56.15;100080.48;122964;1105;104294;-78
2023/02/22 02:26:47;;;;;;;10.90;3.00;;;;;;;5.78;56.07;100081.36;122959;1105;104261;-78
2023/02/22 02:29:49;;;;;;;8.20;3.03;;;;;;;5.78;56.28;100083.96;123013;1105;104337;-78
2023/02/22 02:32:32;;;;;;;7.60;2.70;;;;;;;5.80;56.30;100083.23;122991;1106;104437;-77
2023/02/22 02:35:11;;;;;;;8.00;2.90;;;;;;;5.81;55.94;100091.92;122929;1106;104405;-77
2023/02/22 02:37:54;;;;;;;8.27;3.23;;;;;;;5.81;56.18;100084.98;122906;1105;104248;-78
2023/02/22 02:40:35;;;;;;;11.50;3.20;;;;;;;5.80;55.98;100093.64;122954;1105;104274;-77
2023/02/22 02:43:13;;;;;;;7.87;3.10;;;;;;;5.79;56.17;100104.86;122953;1105;104836;-77
2023/02/22 02:45:51;;;;;;;13.70;3.13;;;;;;;5.78;56.14;100110.00;122832;1105;104403;-78
2023/02/22 02:48:26;;;;;;;8.80;2.87;;;;;;;5.76;56.40;100108.23;122853;1105;104466;-77
2023/02/22 02:51:01;;;;;;;7.77;2.63;;;;;;;5.78;56.45;100112.60;122836;1105;104335;-77
2023/02/22 02:53:37;;;;;;;6.57;2.40;;;;;;;5.77;56.45;100114.32;123026;1105;104408;-77
2023/02/22 02:56:09;;;;;;;10.47;2.73;;;;;;;5.76;56.20;100118.65;122903;1105;104290;-77
2023/02/22 02:58:49;;;;;;;7.17;2.63;;;;;;;5.75;55.97;100116.85;122921;1106;104404;-78
2023/02/22 03:01:45;;;;;;;9.30;2.77;;;;;;;5.74;55.95;100108.97;122987;1105;104403;-77
2023/02/22 03:04:27;;;;;;;8.77;2.63;;;;;;;5.73;56.04;100120.19;122963;1105;104721;-77
2023/02/22 03:07:37;;;;;;;10.33;2.73;;;;;;;5.69;55.95;100116.55;122907;1105;104293;-77
2023/02/22 03:10:27;;;;;;;9.93;2.73;;;;;;;5.66;56.53;100119.00;122778;1105;104425;-78
2023/02/22 03:13:09;;;;;;;13.17;2.77;;;;;;;5.64;56.24;100123.25;122945;1105;104376;-77
2023/02/22 03:15:52;;;;;;;8.33;2.40;;;;;;;5.62;56.07;100129.19;122895;1105;104373;-78
2023/02/22 03:18:29;;;;;;;9.90;2.90;;;;;;;5.61;56.34;100132.59;122913;1105;104371;-77
2023/02/22 03:21:07;;;;;;;11.87;3.50;;;;;;;5.58;56.54;100135.96;122908;1105;104339;-76
2023/02/22 03:23:45;;;;;;;9.93;2.70;;;;;;;5.57;56.40;100152.38;122955;1105;104357;-78
2023/02/22 03:26:22;;;;;;;7.03;2.70;;;;;;;5.54;56.61;100153.11;122839;1105;104354;-78
2023/02/22 03:28:57;;;;;;;6.30;2.90;;;;;;;5.54;56.81;100154.83;122851;1105;104291;-78
2023/02/22 03:31:36;;;;;;;14.17;3.47;;;;;;;5.50;56.59;100155.48;122951;1105;104246;-76
2023/02/22 03:34:12;;;;;;;12.40;3.13;;;;;;;5.46;56.47;100163.97;122868;1105;104472;-78
2023/02/22 03:36:48;;;;;;;13.17;2.97;;;;;;;5.42;56.78;100164.62;123014;1105;104319;-77
2023/02/22 03:39:29;;;;;;;8.53;2.93;;;;;;;5.36;56.75;100167.79;122779;1105;104338;-77
2023/02/22 03:42:08;;;;;;;10.60;3.10;;;;;;;5.33;56.42;100176.35;122704;1105;105901;-77
2023/02/22 03:44:43;;;;;;;11.50;3.13;;;;;;;5.29;56.68;100169.19;123062;1105;104338;-77
2023/02/22 03:47:23;;;;;;;11.37;3.20;;;;;;;5.26;56.71;100171.63;123078;1105;104358;-77
2023/02/22 03:50:00;;;;;;;11.83;2.87;;;;;;;5.28;56.72;100174.31;123014;1105;104287;-77
2023/02/22 03:52:32;;;;;;;12.17;3.03;;;;;;;5.28;56.82;100175.20;122992;1105;104352;-77
2023/02/22 03:55:09;;;;;;;9.43;2.90;;;;;;;5.32;56.70;100166.75;122756;1105;104354;-76
2023/02/22 03:57:45;;;;;;;8.10;3.10;;;;;;;5.34;56.99;100175.52;122919;1105;104364;-77
2023/02/22 04:00:21;;;;;;;9.60;2.80;;;;;;;5.36;57.03;100168.70;122876;1106;104402;-78
2023/02/22 04:02:54;;;;;;;15.40;3.20;;;;;;;5.38;57.13;100164.46;122864;1105;104254;-76
2023/02/22 04:05:26;;;;;;;8.90;2.85;;;;;;;5.40;57.02;100169.74;122760;1105;104366;-77
2023/02/22 04:07:59;;;;;;;8.57;3.10;;;;;;;5.42;57.11;100178.52;122738;1105;104408;-78
2023/02/22 04:10:32;;;;;;;10.15;3.00;;;;;;;5.43;57.10;100175.11;122875;1105;104319;-78
2023/02/22 04:13:05;;;;;;;12.17;3.00;;;;;;;5.44;57.29;100181.19;122910;1103;104232;-77
2023/02/22 04:15:38;;;;;;;12.73;3.40;;;;;;;5.44;57.31;100183.80;123186;1105;104444;-76
2023/02/22 04:18:12;;;;;;;10.40;3.53;;;;;;;5.42;57.56;100182.83;122964;1105;104450;-76
2023/02/22 04:20:44;;;;;;;10.23;3.37;;;;;;;5.40;57.29;100188.84;122970;1105;104662;-76
2023/02/22 04:23:21;;;;;;;14.20;3.60;;;;;;;5.38;57.40;100195.69;123179;1105;104242;-78
2023/02/22 04:25:53;;;;;;;11.13;3.67;;;;;;;5.38;57.44;100190.48;123174;1105;104272;-77
2023/02/22 04:28:24;;;;;;;12.20;3.95;;;;;;;5.37;57.26;100195.61;123035;1105;104366;-76
2023/02/22 04:31:08;;;;;;;13.37;3.87;;;;;;;5.33;57.47;100191.97;122906;1105;104323;-76
2023/02/22 04:33:40;;;;;;;12.83;3.80;;;;;;;5.31;56.97;100190.97;122876;1105;108421;-76
2023/02/22 04:36:14;;;;;;;12.27;3.80;;;;;;;5.31;57.19;100196.17;123040;1105;104501;-76
2023/02/22 04:38:47;;;;;;;10.10;3.80;;;;;;;5.31;57.56;100193.57;123141;1105;104236;-77
2023/02/22 04:41:18;;;;;;;15.00;4.10;;;;;;;5.30;57.15;100199.61;122939;1105;104312;-78
2023/02/22 04:43:50;;;;;;;15.50;4.87;;;;;;;5.29;57.30;100205.62;122821;1105;104444;-76
2023/02/22 04:46:25;;;;;;;15.33;4.90;;;;;;;5.27;57.42;100212.45;122914;1105;104408;-77
2023/02/22 04:48:57;;;;;;;17.73;4.77;;;;;;;5.24;57.73;100208.81;122872;1105;104291;-76
2023/02/22 04:51:31;;;;;;;12.18;4.08;;;;;;;5.21;57.69;100225.14;122826;1105;104214;-76
2023/02/22 04:54:09;;;;;;;13.70;4.10;;;;;;;5.17;57.86;100230.98;122827;1105;104331;-76
2023/02/22 04:56:42;;;;;;;13.37;3.97;;;;;;;5.13;57.82;100235.14;122850;1105;104286;-76
2023/02/22 04:59:13;;;;;;;19.60;4.30;;;;;;;5.10;58.10;100236.70;122739;1105;104371;-76
2023/02/22 05:01:48;;;;;;;17.07;4.73;;;;;;;5.04;57.92;100240.73;122778;1105;104315;-76
2023/02/22 05:04:20;;;;;;;16.43;4.53;;;;;;;5.00;57.74;100250.89;122694;1105;104245;-75
2023/02/22 05:06:52;;;;;;;15.43;5.00;;;;;;;4.94;57.84;100251.47;122813;1105;104784;-77
2023/02/22 05:09:23;;;;;;;14.17;4.00;;;;;;;4.89;57.77;100255.50;122757;1105;104355;-76
2023/02/22 05:11:54;;;;;;;14.87;4.73;;;;;;;4.86;57.80;100256.25;122721;1105;104341;-76
2023/02/22 05:14:26;;;;;;;15.93;4.40;;;;;;;4.86;57.92;100255.34;122714;1105;105508;-76
2023/02/22 05:16:58;;;;;;;16.10;4.30;;;;;;;4.85;58.31;100257.05;122861;1105;104348;-77
2023/02/22 05:19:29;;;;;;;15.43;4.33;;;;;;;4.88;58.13;100265.82;122807;1105;104261;-76
2023/02/22 05:22:00;;;;;;;14.00;3.93;;;;;;;4.88;58.89;100260.62;123014;1105;104319;-75
2023/02/22 05:24:32;;;;;;;11.17;4.17;;;;;;;4.89;58.79;100268.50;123005;1105;104364;-76
2023/02/22 05:27:03;;;;;;;15.57;4.30;;;;;;;4.89;58.21;100271.11;123359;1105;104233;-76
2023/02/22 05:29:37;;;;;;;11.43;4.63;;;;;;;4.90;58.19;100267.70;123349;1105;104300;-76
2023/02/22 05:32:08;;;;;;;15.90;4.75;;;;;;;4.90;58.82;100290.22;123466;1105;104293;-77
2023/02/22 05:34:40;;;;;;;16.03;5.23;;;;;;;4.81;59.08;100286.28;123222;1105;104460;-76
2023/02/22 05:37:12;;;;;;;16.77;5.23;;;;;;;4.74;58.71;100288.48;123096;1105;104319;-76
2023/02/22 05:39:45;;;;;;;17.13;6.17;;;;;;;4.71;59.28;100302.20;123252;1105;104181;-76
2023/02/22 05:42:18;;;;;;;16.63;5.43;;;;;;;4.72;59.07;100296.20;123210;1105;104207;-76
2023/02/22 05:44:49;;;;;;;18.53;5.50;;;;;;;4.80;59.26;100312.20;123256;1106;104185;-76
2023/02/22 05:47:21;;;;;;;16.53;5.07;;;;;;;4.86;59.42;100308.25;123276;1105;104392;-75
2023/02/22 05:49:52;;;;;;;17.83;5.47;;;;;;;4.92;59.07;100314.59;123408;1105;104441;-77
2023/02/22 05:52:24;;;;;;;15.50;4.77;;;;;;;4.98;59.12;100309.73;123535;1105;104315;-76
2023/02/22 05:54:55;;;;;;;17.07;4.70;;;;;;;5.03;59.44;100314.39;123480;1105;104881;-77
2023/02/22 05:57:27;;;;;;;16.93;4.60;;;;;;;5.09;59.64;100321.61;123424;1105;104385;-77
2023/02/22 05:59:58;;;;;;;15.00;4.87;;;;;;;5.13;59.40;100325.30;123472;1105;104255;-77
2023/02/22 06:02:29;;;;;;;15.60;5.40;;;;;;;5.19;59.99;100330.83;123423;1105;104464;-77
2023/02/22 06:05:01;;;;;;;16.87;6.03;;;;;;;5.26;59.46;100327.73;123493;1105;104326;-78
2023/02/22 06:07:32;;;;;;;16.37;5.20;;;;;;;5.30;60.15;100337.50;123483;1105;104257;-77
2023/02/22 06:10:04;;;;;;;22.60;5.87;;;;;;;5.36;59.77;100337.84;123654;1105;104227;-77
2023/02/22 06:12:35;;;;;;;23.00;5.27;;;;;;;5.43;59.89;100341.66;123520;1105;104326;-77
2023/02/22 06:15:07;;;;;;;15.10;4.93;;;;;;;5.51;60.37;100347.27;123769;1105;104287;-77
2023/02/22 06:17:40;;;;;;;18.33;4.87;;;;;;;5.61;60.14;100346.95;123559;1105;104288;-74
2023/02/22 06:20:15;;;;;;;13.07;4.30;;;;;;;5.69;59.93;100348.25;123628;1104;104265;-78
2023/02/22 06:22:48;;;;;;;16.90;4.87;;;;;;;5.77;60.34;100348.66;123880;1105;104370;-78
2023/02/22 06:25:23;;;;;;;19.67;4.47;;;;;;;5.84;60.06;100352.47;123912;1105;103513;-78
2023/02/22 06:27:54;;;;;;;19.53;4.60;;;;;;;5.90;60.13;100347.58;123841;1105;104207;-76
2023/02/22 06:30:27;;;;;;;19.60;4.83;;;;;;;6.01;60.07;100350.77;123909;1105;104234;-78
2023/02/22 06:32:59;;;;;;;59.90;11.03;;;;;;;6.09;60.14;100350.36;124199;1105;103215;-78
2023/02/22 06:35:30;;;;;;;18.77;5.47;;;;;;;6.16;60.00;100356.77;124014;1105;104283;-76
2023/02/22 06:38:02;;;;;;;14.77;4.57;;;;;;;6.19;59.61;100364.75;123920;1105;104317;-79
2023/02/22 06:40:36;;;;;;;19.57;5.23;;;;;;;6.24;60.20;100364.98;124085;1105;104272;-76
2023/02/22 06:43:09;;;;;;;15.28;4.92;;;;;;;6.27;59.70;100363.41;124083;1105;104294;-76
2023/02/22 06:45:41;;;;;;;18.57;4.67;;;;;;;6.25;59.73;100365.06;124019;1105;104240;-75
2023/02/22 06:48:12;;;;;;;17.60;4.57;;;;;;;6.25;59.77;100372.87;124237;1105;104261;-76
2023/02/22 06:50:44;;;;;;;18.10;4.63;;;;;;;6.26;59.98;100365.94;124151;1104;104189;-77
2023/02/22 06:53:15;;;;;;;15.50;4.43;;;;;;;6.29;59.83;100372.23;124180;1106;104390;-73
2023/02/22 06:55:47;;;;;;;23.77;5.20;;;;;;;6.42;59.72;100370.20;124176;1105;104185;-75
2023/02/22 06:58:18;;;;;;;32.57;6.67;;;;;;;6.54;59.74;100367.33;124337;1105;104273;-76
2023/02/22 07:00:50;;;;;;;17.30;4.40;;;;;;;6.64;59.53;100366.98;124482;1105;104232;-76
2023/02/22 07:03:22;;;;;;;13.97;4.10;;;;;;;6.76;59.62;100369.28;124251;1105;104237;-76
2023/02/22 07:05:54;;;;;;;32.87;6.83;;;;;;;6.87;59.58;100361.98;124232;1105;104195;-76
2023/02/22 07:08:25;;;;;;;20.50;4.90;;;;;;;6.98;59.63;100355.55;124487;1105;104190;-78
2023/02/22 07:10:57;;;;;;;17.60;5.10;;;;;;;7.10;59.88;100356.13;124357;1105;104396;-77
2023/02/22 07:13:29;;;;;;;75.27;9.43;;;;;;;7.23;59.56;100357.62;124609;1105;102413;-77
2023/02/22 07:16:01;;;;;;;22.53;5.40;;;;;;;7.35;59.83;100352.06;124446;1106;104197;-76
2023/02/22 07:18:33;;;;;;;15.33;4.53;;;;;;;7.46;59.29;100352.56;124606;1105;104179;-75
2023/02/22 07:21:04;;;;;;;16.70;4.63;;;;;;;7.55;59.51;100351.25;124194;1105;104079;-73
2023/02/22 07:23:37;;;;;;;22.10;4.77;;;;;;;7.67;59.15;100357.88;124322;1105;102250;-75
2023/02/22 07:26:09;;;;;;;18.27;4.50;;;;;;;7.80;59.82;100362.81;124416;1105;103124;-75
2023/02/22 07:28:41;;;;;;;15.70;4.00;;;;;;;7.84;58.98;100359.52;124566;1105;103050;-77
2023/02/22 07:31:14;;;;;;;14.13;4.43;;;;;;;7.81;58.93;100363.73;124559;1105;104281;-76
2023/02/22 07:33:50;;;;;;;15.10;4.47;;;;;;;7.84;59.00;100375.20;124640;1105;103426;-77
2023/02/22 07:36:21;;;;;;;;;;;;;;;7.83;58.39;100370.78;124651;1105;104233;-78
2023/02/22 07:38:53;;;;;;;16.13;3.60;;;;;;;7.91;58.55;100368.52;124983;1105;102837;-77
2023/02/22 07:41:28;;;;;;;13.93;3.80;;;;;;;7.98;58.42;100377.50;124885;1105;103838;-78
2023/02/22 07:44:02;;;;;;;14.37;4.00;;;;;;;8.04;58.23;100367.33;124538;1105;104344;-76
2023/02/22 07:46:40;;;;;;;12.37;3.47;;;;;;;8.15;58.84;100379.16;124496;1105;104698;-78
2023/02/22 07:49:12;;;;;;;12.37;3.50;;;;;;;8.21;58.54;100366.36;124562;1105;104223;-76
2023/02/22 07:51:44;;;;;;;11.50;3.90;;;;;;;8.30;58.02;100370.19;124548;1105;104213;-76
2023/02/22 07:54:16;;;;;;;11.80;3.65;;;;;;;8.44;58.09;100376.92;124469;1105;103360;-76
2023/02/22 07:56:50;;;;;;;10.53;3.40;;;;;;;8.53;57.71;100374.69;124277;1105;104210;-77
2023/02/22 07:59:21;;;;;;;;;;;;;;;8.60;57.40;100368.91;124421;1105;104169;-77
2023/02/22 08:01:52;;;;;;;10.70;3.30;;;;;;;8.62;57.18;100379.43;124386;1105;104245;-76
2023/02/22 08:04:26;;;;;;;16.73;3.70;;;;;;;8.67;57.30;100379.62;124401;1104;104274;-78
2023/02/22 08:06:59;;;;;;;12.88;2.85;;;;;;;8.77;56.78;100384.38;124554;1106;104201;-76
2023/02/22 08:09:31;;;;;;;11.27;2.80;;;;;;;8.85;57.13;100384.70;124450;1105;103963;-78
2023/02/22 08:12:02;;;;;;;13.33;3.40;;;;;;;8.93;56.62;100391.16;124534;1105;104322;-78
2023/02/22 08:14:35;;;;;;;13.80;3.63;;;;;;;8.98;56.21;100387.88;124473;1105;104249;-77
2023/02/22 08:17:10;;;;;;;14.63;3.70;;;;;;;9.08;56.32;100390.86;124573;1105;104937;-77
2023/02/22 08:19:44;;;;;;;12.28;3.30;;;;;;;9.18;56.62;100366.84;124471;1105;102038;-78
2023/02/22 08:22:19;;;;;;;10.80;3.03;;;;;;;9.22;56.12;100381.82;124535;1105;102535;-77
2023/02/22 08:24:53;;;;;;;10.70;3.10;;;;;;;9.27;55.90;100389.86;124641;1105;102461;-76
2023/02/22 08:27:29;;;;;;;9.78;3.00;;;;;;;9.33;55.19;100374.38;124543;1105;104437;-75
2023/02/22 08:30:02;;;;;;;13.20;3.53;;;;;;;9.37;54.92;100372.80;124731;1105;104107;-77
2023/02/22 08:32:36;;;;;;;10.20;3.00;;;;;;;9.44;55.37;100386.19;124748;1105;104204;-76
2023/02/22 08:35:12;;;;;;;11.77;3.10;;;;;;;9.57;54.82;100387.54;124557;1105;102803;-77
2023/02/22 08:37:47;;;;;;;11.67;2.87;;;;;;;9.72;54.93;100384.59;124561;1104;102987;-75
2023/02/22 08:40:23;;;;;;;11.43;3.23;;;;;;;9.83;55.03;100391.14;124414;1105;104281;-75
2023/02/22 08:42:56;;;;;;;12.13;3.70;;;;;;;9.78;54.53;100394.41;124404;1105;104181;-73
2023/02/22 08:45:28;;;;;;;16.27;4.07;;;;;;;9.74;54.77;100396.04;124373;1105;104420;-74
2023/02/22 08:48:00;;;;;;;13.10;3.60;;;;;;;9.66;54.39;100397.45;124416;1105;104345;-75
2023/02/22 08:50:37;;;;;;;11.57;3.40;;;;;;;9.56;54.12;100408.44;124424;1105;102200;-76
2023/02/22 08:53:12;;;;;;;17.23;4.00;;;;;;;9.51;54.33;100403.02;124280;1105;103096;-75
2023/02/22 08:55:44;;;;;;;15.10;3.80;;;;;;;9.54;53.99;100418.86;124489;1105;104194;-75
2023/02/22 08:58:16;;;;;;;13.80;4.07;;;;;;;9.41;54.09;100409.64;124462;1106;104245;-77
2023/02/22 09:00:48;;;;;;;16.83;3.90;;;;;;;9.46;54.06;100422.92;124418;1105;102707;-76
2023/02/22 09:03:20;;;;;;;13.40;3.67;;;;;;;9.50;53.74;100430.03;124459;1104;104300;-77
2023/02/22 09:05:58;;;;;;;12.85;3.12;;;;;;;9.43;53.53;100435.89;124569;1105;104291;-77
2023/02/22 09:08:32;;;;;;;12.70;3.60;;;;;;;9.32;53.42;100427.61;124564;1105;103033;-76
2023/02/22 09:11:25;;;;;;;9.13;3.30;;;;;;;9.29;53.87;100423.13;124766;1105;103226;-76
2023/02/22 09:14:02;;;;;;;14.53;4.30;;;;;;;9.38;53.97;100427.85;124436;1105;103157;-78
2023/02/22 09:16:36;;;;;;;10.93;3.70;;;;;;;9.44;53.66;100437.66;124540;1105;102059;-76
2023/02/22 09:19:08;;;;;;;15.40;3.67;;;;;;;9.49;53.76;100438.72;124505;1105;103050;-77
2023/02/22 09:21:41;;;;;;;18.17;4.20;;;;;;;9.64;54.28;100444.55;124369;1105;103045;-76
2023/02/22 09:24:15;;;;;;;13.93;4.27;;;;;;;9.76;54.36;100438.02;124392;1105;103345;-76
2023/02/22 09:26:53;;;;;;;14.67;4.37;;;;;;;9.85;54.30;100439.25;124616;1105;102790;-77
2023/02/22 09:29:29;;;;;;;14.83;4.27;;;;;;;9.75;54.00;100454.56;124451;1106;104172;-76
2023/02/22 09:32:03;;;;;;;13.50;3.83;;;;;;;9.58;54.12;100446.05;124559;1105;102271;-77
2023/02/22 09:34:37;;;;;;;19.13;4.50;;;;;;;9.48;54.47;100439.58;124595;1105;102006;-78
2023/02/22 09:37:13;;;;;;;15.20;3.60;;;;;;;9.62;53.92;100453.21;124419;1105;104292;-77
2023/02/22 09:39:50;;;;;;;17.37;3.87;;;;;;;9.79;53.88;100446.00;124550;1105;107909;-76
2023/02/22 09:42:30;;;;;;;14.93;4.22;;;;;;;9.86;54.08;100435.80;124492;1105;102070;-77
2023/02/22 09:45:11;;;;;;;9.70;3.27;;;;;;;9.91;53.97;100443.84;124419;1105;102910;-76
2023/02/22 09:47:49;;;;;;;10.80;3.73;;;;;;;9.81;53.89;100446.94;124565;1105;104303;-76
2023/02/22 09:50:26;;;;;;;10.27;3.27;;;;;;;9.77;54.11;100461.66;124415;1105;117874;-77
2023/02/22 09:53:03;;;;;;;14.77;3.50;;;;;;;9.87;54.11;100455.03;124412;1106;104318;-76
2023/02/22 09:55:41;;;;;;;13.47;3.90;;;;;;;9.87;53.44;100450.67;124575;1105;104175;-75
2023/02/22 09:58:20;;;;;;;10.17;3.40;;;;;;;9.66;53.77;100447.23;124438;1105;104258;-75
2023/02/22 10:00:58;;;;;;;14.83;4.00;;;;;;;9.58;54.26;100446.94;124523;1105;104182;-75
2023/02/22 10:03:36;;;;;;;10.20;3.20;;;;;;;9.65;53.68;100458.56;124442;1105;104252;-75
2023/02/22 10:06:14;;;;;;;8.63;3.10;;;;;;;9.61;53.56;100456.66;124335;1105;103955;-77
2023/02/22 10:08:46;;;;;;;9.63;2.60;;;;;;;9.52;53.91;100457.17;124287;1105;103094;-74
2023/02/22 10:11:28;;;;;;;8.33;3.50;;;;;;;9.60;53.81;100460.09;124139;1105;104271;-75
2023/02/22 10:14:15;;;;;;;4.90;2.47;;;;;;;9.64;53.94;100457.66;124388;1104;102450;-77
2023/02/22 10:16:58;;;;;;;8.95;2.70;;;;;;;9.76;53.09;100458.98;124268;1105;104306;-74
2023/02/22 10:19:41;;;;;;;7.03;2.90;;;;;;;9.79;52.86;100454.74;124194;1105;104290;-76
2023/02/22 10:22:50;;;;;;;6.03;2.37;;;;;;;9.73;52.52;100457.13;124394;1105;102455;-76
2023/02/22 10:25:25;;;;;;;3.53;1.70;;;;;;;9.57;52.32;100463.52;124325;1105;102535;-75
2023/02/22 10:28:02;;;;;;;7.63;2.43;;;;;;;9.47;51.63;100448.25;124251;1105;102948;-77
2023/02/22 10:30:38;;;;;;;7.23;2.10;;;;;;;9.45;51.93;100442.95;124338;1104;104259;-76
2023/02/22 10:33:15;;;;;;;4.03;1.97;;;;;;;9.49;51.81;100446.58;124212;1105;104731;-75
2023/02/22 10:35:50;;;;;;;5.30;2.23;;;;;;;9.60;52.54;100444.37;124449;1105;104185;-73
2023/02/22 10:38:25;;;;;;;7.37;2.17;;;;;;;9.77;52.66;100445.02;124337;1105;102922;-77
2023/02/22 10:41:01;;;;;;;7.93;2.67;;;;;;;9.80;52.89;100447.77;124425;1105;102651;-75
2023/02/22 10:43:38;;;;;;;8.90;2.33;;;;;;;9.65;52.46;100455.95;124543;1105;103426;-75
2023/02/22 10:46:16;;;;;;;5.00;2.20;;;;;;;9.45;52.01;100460.41;124511;1105;103232;-76
2023/02/22 10:48:51;;;;;;;9.17;2.73;;;;;;;9.34;52.16;100455.62;124364;1105;104241;-74
2023/02/22 10:51:23;;;;;;;8.83;3.50;;;;;;;9.33;52.17;100438.14;124359;1106;111350;-76
2023/02/22 10:54:10;;;;;;;8.23;3.43;;;;;;;9.38;52.29;100448.80;124274;1105;104190;-76
2023/02/22 10:56:49;;;;;;;8.07;3.20;;;;;;;9.43;52.21;100438.52;124347;1105;103994;-76
2023/02/22 10:59:34;;;;;;;9.63;2.90;;;;;;;9.43;52.58;100446.37;124276;1105;102661;-76
2023/02/22 11:02:18;;;;;;;12.93;3.00;;;;;;;9.51;51.89;100437.08;124311;1105;103022;-76
2023/02/22 11:04:55;;;;;;;11.47;2.70;;;;;;;9.61;52.35;100436.58;124400;1105;104393;-74
2023/02/22 11:07:29;;;;;;;6.60;2.40;;;;;;;9.68;52.50;100427.25;124306;1105;104294;-75
2023/02/22 11:10:04;;;;;;;5.97;2.00;;;;;;;9.71;52.35;100435.23;125688;1105;102044;-76
2023/02/22 11:12:37;;;;;;;;;;;;;;;9.67;51.33;100441.17;125573;1104;102372;-75
2023/02/22 11:15:30;;;;;;;4.53;1.97;;;;;;;9.64;51.36;100441.05;125671;1105;102798;-76
2023/02/22 11:18:01;;;;;;;29.70;5.30;;;;;;;9.58;51.27;100443.44;125764;1105;101530;-73
2023/02/22 11:20:39;;;;;;;6.97;2.50;;;;;;;9.51;51.71;100442.31;125796;1105;102690;-75
2023/02/22 11:23:12;;;;;;;6.27;2.00;;;;;;;9.52;51.20;100442.38;125846;1104;102940;-76
2023/02/22 11:25:44;;;;;;;20.52;3.95;;;;;;;9.56;50.72;100443.38;125789;1105;101826;-76
2023/02/22 11:28:29;;;;;;;7.80;2.60;;;;;;;9.67;51.06;100441.17;125720;1105;102089;-74
2023/02/22 11:31:16;;;;;;;6.43;2.60;;;;;;;9.82;51.32;100440.87;125621;1105;103006;-75
2023/02/22 11:34:14;;;;;;;55.97;7.90;;;;;;;9.88;51.28;100426.27;125670;1105;102270;-74
2023/02/22 11:36:45;;;;;;;;;;;;;;;10.08;50.31;100434.87;125821;1104;104025;-76
2023/02/22 11:39:33;;;;;;;8.13;2.60;;;;;;;10.05;51.16;100437.37;125923;1104;101621;-75
2023/02/22 11:42:21;;;;;;;8.97;2.70;;;;;;;9.88;51.46;100436.75;125600;1105;102179;-76
2023/02/22 11:45:11;;;;;;;6.77;2.43;;;;;;;9.87;51.10;100439.31;125908;1104;102269;-75
2023/02/22 11:48:01;;;;;;;3.20;1.97;;;;;;;9.69;51.19;100444.73;125747;1104;101747;-74
2023/02/22 11:50:58;;;;;;;5.97;2.20;;;;;;;9.57;51.15;100432.07;125464;1105;102295;-74